createdAt,value
2022-12-23T00:02:03.268Z,0.00
2022-12-23T00:07:03.203Z,0.00
2022-12-23T00:12:03.077Z,0.00
2022-12-23T00:17:09.146Z,0.00
2022-12-23T00:22:03.927Z,0.00
2022-12-23T00:27:02.864Z,0.00
2022-12-23T00:32:02.848Z,0.00
2022-12-23T00:37:02.728Z,0.00
2022-12-23T00:42:02.720Z,0.00
2022-12-23T00:47:02.596Z,0.00
2022-12-23T00:52:02.567Z,0.00
2022-12-23T00:57:02.518Z,0.00
2022-12-23T01:02:02.616Z,0.00
2022-12-23T01:07:02.335Z,0.00
2022-12-23T01:12:02.293Z,0.00
2022-12-23T01:17:02.328Z,0.00
2022-12-23T01:22:02.127Z,0.00
2022-12-23T01:27:02.091Z,0.00
2022-12-23T01:32:02.075Z,0.00
2022-12-23T01:37:01.972Z,0.00
2022-12-23T01:42:01.916Z,0.00
2022-12-23T01:47:01.831Z,0.00
2022-12-23T01:52:01.733Z,0.00
2022-12-23T01:57:01.689Z,0.00
2022-12-23T02:02:01.790Z,0.00
2022-12-23T02:07:01.573Z,0.00
2022-12-23T02:12:01.480Z,0.00
2022-12-23T02:17:01.492Z,0.00
2022-12-23T02:22:01.359Z,0.00
2022-12-23T02:27:01.299Z,0.00
2022-12-23T02:32:01.231Z,0.00
2022-12-23T02:37:01.219Z,0.00
2022-12-23T02:42:01.057Z,0.00
2022-12-23T02:47:01.026Z,0.00
2022-12-23T02:52:00.945Z,0.00
2022-12-23T02:57:00.892Z,0.00
2022-12-23T03:02:00.897Z,0.00
2022-12-23T03:07:07.185Z,0.00
2022-12-23T03:12:01.734Z,0.00
2022-12-23T03:17:00.607Z,0.00
2022-12-23T03:22:00.587Z,0.00
2022-12-23T03:27:00.490Z,0.00
2022-12-23T03:32:00.427Z,0.00
2022-12-23T03:37:00.345Z,0.00
2022-12-23T03:42:00.312Z,0.00
2022-12-23T03:47:00.195Z,0.00
2022-12-23T03:52:00.146Z,0.00
2022-12-23T03:57:00.117Z,0.00
2022-12-23T04:02:00.064Z,0.00
2022-12-23T04:06:59.942Z,0.00
2022-12-23T04:11:59.883Z,0.00
2022-12-23T04:16:59.800Z,0.00
2022-12-23T04:21:59.731Z,0.00
2022-12-23T04:26:59.715Z,0.00
2022-12-23T04:31:59.656Z,0.00
2022-12-23T04:36:59.553Z,0.00
2022-12-23T04:41:59.460Z,0.00
2022-12-23T04:46:59.446Z,0.00
2022-12-23T04:51:59.317Z,0.00
2022-12-23T04:56:59.262Z,0.00
2022-12-23T05:01:59.401Z,0.00
2022-12-23T05:06:59.119Z,0.00
2022-12-23T05:11:59.039Z,0.00
2022-12-23T05:17:05.247Z,0.00
2022-12-23T05:21:59.922Z,0.00
2022-12-23T05:27:00.414Z,0.00
2022-12-23T05:31:58.954Z,0.00
2022-12-23T05:36:58.727Z,0.00
2022-12-23T05:41:58.645Z,0.00
2022-12-23T05:46:58.584Z,0.00
2022-12-23T05:51:58.536Z,0.00
2022-12-23T05:56:58.461Z,0.00
2022-12-23T06:01:58.519Z,0.00
2022-12-23T06:06:58.339Z,0.00
2022-12-23T06:11:58.245Z,0.00
2022-12-23T06:16:58.195Z,0.00
2022-12-23T06:21:58.125Z,0.00
2022-12-23T06:26:58.054Z,0.00
2022-12-23T06:31:58.349Z,0.00
2022-12-23T06:36:57.929Z,0.00
2022-12-23T06:41:57.861Z,0.00
2022-12-23T06:46:57.796Z,4.00
2022-12-23T06:51:57.732Z,12.00
2022-12-23T06:56:57.693Z,20.00
2022-12-23T07:01:57.793Z,28.00
2022-12-23T07:06:57.535Z,52.00
2022-12-23T07:11:57.487Z,88.00
2022-12-23T07:16:57.440Z,104.00
2022-12-23T07:21:57.291Z,124.00
2022-12-23T07:26:57.235Z,128.00
2022-12-23T07:31:57.266Z,132.00
2022-12-23T07:36:57.099Z,132.00
2022-12-23T07:42:25.064Z,172.00
2022-12-23T07:46:57.989Z,172.00
2022-12-23T07:51:56.980Z,252.00
2022-12-23T07:56:56.842Z,560.00
2022-12-23T08:01:56.862Z,436.00
2022-12-23T08:06:56.758Z,512.00
2022-12-23T08:11:56.682Z,432.00
2022-12-23T08:16:56.925Z,668.00
2022-12-23T08:21:56.534Z,804.00
2022-12-23T08:26:56.486Z,792.00
2022-12-23T08:31:56.428Z,808.00
2022-12-23T08:36:56.360Z,732.00
2022-12-23T08:41:56.264Z,644.00
2022-12-23T08:46:56.238Z,612.00
2022-12-23T08:51:56.155Z,792.00
2022-12-23T08:56:56.083Z,1584.00
2022-12-23T09:01:56.150Z,1412.00
2022-12-23T09:06:55.966Z,1708.00
2022-12-23T09:11:55.894Z,904.00
2022-12-23T09:16:55.842Z,640.00
2022-12-23T09:21:55.749Z,616.00
2022-12-23T09:26:55.674Z,696.00
2022-12-23T09:31:55.655Z,844.00
2022-12-23T09:36:55.760Z,844.00
2022-12-23T09:41:55.488Z,1484.00
2022-12-23T09:46:55.552Z,1516.00
2022-12-23T09:51:55.313Z,1172.00
2022-12-23T09:56:55.282Z,1216.00
2022-12-23T10:01:55.354Z,1988.00
2022-12-23T10:06:56.426Z,2368.00
2022-12-23T10:11:56.396Z,2028.00
2022-12-23T10:16:55.125Z,1276.00
2022-12-23T10:21:54.962Z,1100.00
2022-12-23T10:26:55.055Z,1188.00
2022-12-23T10:31:55.253Z,1964.00
2022-12-23T10:36:54.803Z,2252.00
2022-12-23T10:41:54.759Z,1436.00
2022-12-23T10:46:54.649Z,1396.00
2022-12-23T10:51:54.537Z,1644.00
2022-12-23T10:56:54.480Z,1580.00
2022-12-23T11:01:54.576Z,1868.00
2022-12-23T11:07:41.667Z,1520.00
2022-12-23T11:11:55.349Z,944.00
2022-12-23T11:16:54.319Z,1172.00
2022-12-23T11:21:54.234Z,1072.00
2022-12-23T11:26:54.166Z,1832.00
2022-12-23T11:31:54.525Z,2688.00
2022-12-23T11:36:56.589Z,2968.00
2022-12-23T11:41:55.103Z,3816.00
2022-12-23T11:46:53.874Z,3824.00
2022-12-23T11:51:53.793Z,4288.00
2022-12-23T11:56:53.714Z,3540.00
2022-12-23T12:01:53.855Z,2920.00
2022-12-23T12:06:56.539Z,2488.00
2022-12-23T12:11:53.467Z,2716.00
2022-12-23T12:16:53.439Z,2448.00
2022-12-23T12:21:53.381Z,2660.00
2022-12-23T12:26:53.403Z,2900.00
2022-12-23T12:31:53.222Z,3528.00
2022-12-23T12:36:53.222Z,3564.00
2022-12-23T12:41:53.097Z,2852.00
2022-12-23T12:46:52.964Z,1468.00
2022-12-23T12:51:53.190Z,1076.00
2022-12-23T12:56:52.869Z,852.00
2022-12-23T13:01:52.799Z,1032.00
2022-12-23T13:06:52.774Z,1056.00
2022-12-23T13:11:52.737Z,1228.00
2022-12-23T13:16:52.761Z,912.00
2022-12-23T13:21:52.573Z,500.00
2022-12-23T13:26:52.464Z,252.00
2022-12-23T13:31:52.498Z,240.00
2022-12-23T13:36:52.500Z,388.00
2022-12-23T13:41:52.344Z,492.00
2022-12-23T13:46:52.204Z,520.00
2022-12-23T13:51:52.198Z,524.00
2022-12-23T13:56:52.033Z,512.00
2022-12-23T14:01:52.059Z,540.00
2022-12-23T14:06:51.958Z,524.00
2022-12-23T14:11:51.843Z,440.00
2022-12-23T14:16:52.168Z,508.00
2022-12-23T14:21:51.811Z,680.00
2022-12-23T14:26:51.661Z,472.00
2022-12-23T14:31:51.822Z,228.00
2022-12-23T14:36:51.528Z,148.00
2022-12-23T14:41:51.488Z,120.00
2022-12-23T14:46:51.482Z,100.00
2022-12-23T14:51:51.377Z,88.00
2022-12-23T14:56:51.273Z,72.00
2022-12-23T15:01:58.238Z,52.00
2022-12-23T15:06:58.099Z,32.00
2022-12-23T15:11:51.022Z,24.00
2022-12-23T15:16:51.014Z,16.00
2022-12-23T15:21:59.572Z,8.00
2022-12-23T15:27:24.518Z,0.00
2022-12-23T15:31:51.908Z,0.00
2022-12-23T15:36:50.752Z,0.00
2022-12-23T15:41:50.630Z,0.00
2022-12-23T15:46:50.728Z,0.00
2022-12-23T15:52:07.154Z,0.00
2022-12-23T15:56:51.418Z,0.00
2022-12-23T16:01:50.502Z,0.00
2022-12-23T16:06:50.321Z,0.00
2022-12-23T16:11:50.263Z,0.00
2022-12-23T16:16:50.251Z,0.00
2022-12-23T16:21:50.092Z,0.00
2022-12-23T16:26:50.134Z,0.00
2022-12-23T16:31:55.820Z,0.00
2022-12-23T16:36:51.002Z,0.00
2022-12-23T16:41:50.047Z,0.00
2022-12-23T16:46:49.756Z,0.00
2022-12-23T16:51:49.741Z,0.00
2022-12-23T16:56:49.673Z,0.00
2022-12-23T17:01:49.617Z,0.00
2022-12-23T17:06:49.497Z,0.00
2022-12-23T17:11:49.461Z,0.00
2022-12-23T17:16:49.555Z,0.00
2022-12-23T17:21:49.329Z,0.00
2022-12-23T17:26:49.259Z,0.00
2022-12-23T17:31:49.289Z,0.00
2022-12-23T17:36:50.609Z,0.00
2022-12-23T17:41:49.867Z,0.00
2022-12-23T17:46:49.038Z,0.00
2022-12-23T17:51:48.923Z,0.00
2022-12-23T17:56:49.000Z,0.00
2022-12-23T18:01:48.826Z,0.00
2022-12-23T18:06:48.755Z,0.00
2022-12-23T18:11:48.718Z,0.00
2022-12-23T18:16:48.710Z,0.00
2022-12-23T18:21:48.701Z,0.00
2022-12-23T18:26:48.461Z,0.00
2022-12-23T18:31:51.454Z,0.00
2022-12-23T18:36:48.710Z,0.00
2022-12-23T18:41:50.141Z,0.00
2022-12-23T18:46:48.339Z,0.00
2022-12-23T18:51:48.148Z,0.00
2022-12-23T18:56:48.034Z,0.00
2022-12-23T19:01:48.264Z,0.00
2022-12-23T19:06:47.906Z,0.00
2022-12-23T19:11:48.052Z,0.00
2022-12-23T19:16:51.956Z,0.00
2022-12-23T19:21:47.685Z,0.00
2022-12-23T19:26:47.622Z,0.00
2022-12-23T19:31:47.551Z,0.00
2022-12-23T19:36:47.657Z,0.00
2022-12-23T19:41:47.552Z,0.00
2022-12-23T19:46:47.424Z,0.00
2022-12-23T19:51:47.292Z,0.00
2022-12-23T19:56:47.467Z,0.00
2022-12-23T20:01:47.240Z,0.00
2022-12-23T20:06:47.399Z,0.00
2022-12-23T20:11:47.065Z,0.00
2022-12-23T20:16:51.323Z,0.00
2022-12-23T20:21:46.961Z,0.00
2022-12-23T20:26:46.872Z,0.00
2022-12-23T20:31:46.836Z,0.00
2022-12-23T20:36:46.758Z,0.00
2022-12-23T20:41:46.608Z,0.00
2022-12-23T20:46:46.667Z,0.00
2022-12-23T20:51:46.470Z,0.00
2022-12-23T20:56:46.866Z,0.00
2022-12-23T21:01:46.424Z,0.00
2022-12-23T21:06:46.354Z,0.00
2022-12-23T21:11:46.297Z,0.00
2022-12-23T21:16:46.354Z,0.00
2022-12-23T21:21:46.102Z,0.00
2022-12-23T21:26:48.950Z,0.00
2022-12-23T21:31:47.276Z,0.00
2022-12-23T21:36:45.967Z,0.00
2022-12-23T21:41:45.810Z,0.00
2022-12-23T21:46:45.765Z,0.00
2022-12-23T21:51:45.673Z,0.00
2022-12-23T21:56:45.614Z,0.00
2022-12-23T22:01:45.593Z,0.00
2022-12-23T22:06:45.450Z,0.00
2022-12-23T22:11:45.406Z,0.00
2022-12-23T22:16:45.369Z,0.00
2022-12-23T22:21:45.243Z,0.00
2022-12-23T22:26:45.268Z,0.00
2022-12-23T22:31:45.283Z,0.00
2022-12-23T22:36:45.192Z,0.00
2022-12-23T22:41:45.131Z,0.00
2022-12-23T22:46:45.060Z,0.00
2022-12-23T22:51:44.862Z,0.00
2022-12-23T22:56:44.798Z,0.00
2022-12-23T23:01:44.825Z,0.00
2022-12-23T23:06:44.702Z,0.00
2022-12-23T23:11:44.601Z,0.00
2022-12-23T23:16:44.665Z,0.00
2022-12-23T23:21:44.467Z,0.00
2022-12-23T23:26:44.398Z,0.00
2022-12-23T23:31:45.019Z,0.00
2022-12-23T23:36:44.332Z,0.00
2022-12-23T23:41:44.202Z,0.00
2022-12-23T23:46:44.207Z,0.00
2022-12-23T23:51:44.050Z,0.00
2022-12-23T23:56:43.993Z,0.00
